sensor_id;sensor_type;location;lat;lon;timestamp;temperature;humidity
17954;DHT22;9102;53.548;9.926;2023-04-24T00:01:02;12.00;99.90
17954;DHT22;9102;53.548;9.926;2023-04-24T00:03:29;12.00;99.90
17954;DHT22;9102;53.548;9.926;2023-04-24T00:05:57;12.00;99.90
17954;DHT22;9102;53.548;9.926;2023-04-24T00:08:24;11.90;99.90
17954;DHT22;9102;53.548;9.926;2023-04-24T00:10:51;11.90;99.90
17954;DHT22;9102;53.548;9.926;2023-04-24T00:13:18;11.90;99.90
17954;DHT22;9102;53.548;9.926;2023-04-24T00:15:45;11.90;99.90
17954;DHT22;9102;53.548;9.926;2023-04-24T00:18:12;11.90;99.90
17954;DHT22;9102;53.548;9.926;2023-04-24T00:20:39;11.90;99.90
17954;DHT22;9102;53.548;9.926;2023-04-24T00:23:08;12.00;99.90
17954;DHT22;9102;53.548;9.926;2023-04-24T00:25:35;12.00;99.90
17954;DHT22;9102;53.548;9.926;2023-04-24T00:28:01;12.00;99.90
17954;DHT22;9102;53.548;9.926;2023-04-24T00:30:28;12.00;99.90
17954;DHT22;9102;53.548;9.926;2023-04-24T00:32:55;12.00;99.90
17954;DHT22;9102;53.548;9.926;2023-04-24T00:35:22;12.00;99.90
17954;DHT22;9102;53.548;9.926;2023-04-24T00:37:49;12.00;99.90
17954;DHT22;9102;53.548;9.926;2023-04-24T00:40:17;12.00;99.90
17954;DHT22;9102;53.548;9.926;2023-04-24T00:42:44;12.00;99.90
17954;DHT22;9102;53.548;9.926;2023-04-24T00:45:12;12.00;99.90
17954;DHT22;9102;53.548;9.926;2023-04-24T00:47:39;12.00;99.90
17954;DHT22;9102;53.548;9.926;2023-04-24T00:50:08;12.00;99.90
17954;DHT22;9102;53.548;9.926;2023-04-24T00:52:36;11.90;99.90
17954;DHT22;9102;53.548;9.926;2023-04-24T00:55:06;11.90;99.90
17954;DHT22;9102;53.548;9.926;2023-04-24T00:57:35;11.90;99.90
17954;DHT22;9102;53.548;9.926;2023-04-24T01:00:02;11.90;99.90
17954;DHT22;9102;53.548;9.926;2023-04-24T01:02:32;11.80;99.90
17954;DHT22;9102;53.548;9.926;2023-04-24T01:05:00;11.90;99.90
17954;DHT22;9102;53.548;9.926;2023-04-24T01:07:27;11.80;99.90
17954;DHT22;9102;53.548;9.926;2023-04-24T01:09:54;11.80;99.90
17954;DHT22;9102;53.548;9.926;2023-04-24T01:12:21;11.80;99.90
17954;DHT22;9102;53.548;9.926;2023-04-24T01:14:49;11.80;99.90
17954;DHT22;9102;53.548;9.926;2023-04-24T01:17:17;11.70;99.90
17954;DHT22;9102;53.548;9.926;2023-04-24T01:19:44;11.80;99.90
17954;DHT22;9102;53.548;9.926;2023-04-24T01:22:13;11.70;99.90
17954;DHT22;9102;53.548;9.926;2023-04-24T01:24:40;11.80;99.90
17954;DHT22;9102;53.548;9.926;2023-04-24T01:27:08;11.80;99.90
17954;DHT22;9102;53.548;9.926;2023-04-24T01:29:36;11.90;99.90
17954;DHT22;9102;53.548;9.926;2023-04-24T01:32:03;11.90;99.90
17954;DHT22;9102;53.548;9.926;2023-04-24T01:34:30;11.90;99.90
17954;DHT22;9102;53.548;9.926;2023-04-24T01:36:58;11.90;99.90
17954;DHT22;9102;53.548;9.926;2023-04-24T01:39:26;12.00;99.90
17954;DHT22;9102;53.548;9.926;2023-04-24T01:41:54;12.10;99.90
17954;DHT22;9102;53.548;9.926;2023-04-24T01:44:21;12.10;99.90
17954;DHT22;9102;53.548;9.926;2023-04-24T01:46:48;12.10;99.90
17954;DHT22;9102;53.548;9.926;2023-04-24T01:49:15;12.10;99.90
17954;DHT22;9102;53.548;9.926;2023-04-24T01:51:42;12.10;99.90
17954;DHT22;9102;53.548;9.926;2023-04-24T01:54:09;12.10;99.90
17954;DHT22;9102;53.548;9.926;2023-04-24T01:56:40;12.10;99.90
17954;DHT22;9102;53.548;9.926;2023-04-24T01:59:09;12.10;99.90
17954;DHT22;9102;53.548;9.926;2023-04-24T02:01:37;12.10;99.90
17954;DHT22;9102;53.548;9.926;2023-04-24T02:04:05;12.10;99.90
17954;DHT22;9102;53.548;9.926;2023-04-24T02:06:32;12.10;99.90
17954;DHT22;9102;53.548;9.926;2023-04-24T02:08:59;12.10;99.90
17954;DHT22;9102;53.548;9.926;2023-04-24T02:11:26;12.10;99.90
17954;DHT22;9102;53.548;9.926;2023-04-24T02:13:54;12.00;99.90
17954;DHT22;9102;53.548;9.926;2023-04-24T02:16:21;12.00;99.90
17954;DHT22;9102;53.548;9.926;2023-04-24T02:18:48;12.00;99.90
17954;DHT22;9102;53.548;9.926;2023-04-24T02:21:15;12.00;99.90
17954;DHT22;9102;53.548;9.926;2023-04-24T02:23:42;11.90;99.90
17954;DHT22;9102;53.548;9.926;2023-04-24T02:26:09;11.90;99.90
17954;DHT22;9102;53.548;9.926;2023-04-24T02:28:36;11.80;99.90
17954;DHT22;9102;53.548;9.926;2023-04-24T02:31:04;11.80;99.90
17954;DHT22;9102;53.548;9.926;2023-04-24T02:33:31;11.80;99.90
17954;DHT22;9102;53.548;9.926;2023-04-24T02:35:58;11.80;99.90
17954;DHT22;9102;53.548;9.926;2023-04-24T02:38:25;11.70;99.90
17954;DHT22;9102;53.548;9.926;2023-04-24T02:40:52;11.70;99.90
17954;DHT22;9102;53.548;9.926;2023-04-24T02:43:19;11.70;99.90
17954;DHT22;9102;53.548;9.926;2023-04-24T02:45:46;11.60;99.90
17954;DHT22;9102;53.548;9.926;2023-04-24T02:48:14;11.60;99.90
17954;DHT22;9102;53.548;9.926;2023-04-24T02:50:41;11.60;99.90
17954;DHT22;9102;53.548;9.926;2023-04-24T02:53:07;11.60;99.90
17954;DHT22;9102;53.548;9.926;2023-04-24T02:55:34;11.60;99.90
17954;DHT22;9102;53.548;9.926;2023-04-24T02:58:01;11.60;99.90
17954;DHT22;9102;53.548;9.926;2023-04-24T03:00:28;11.50;99.90
17954;DHT22;9102;53.548;9.926;2023-04-24T03:02:55;11.50;99.90
17954;DHT22;9102;53.548;9.926;2023-04-24T03:05:23;11.50;99.90
17954;DHT22;9102;53.548;9.926;2023-04-24T03:07:50;11.40;99.90
17954;DHT22;9102;53.548;9.926;2023-04-24T03:10:18;11.40;99.90
17954;DHT22;9102;53.548;9.926;2023-04-24T03:12:44;11.30;99.90
17954;DHT22;9102;53.548;9.926;2023-04-24T03:15:12;11.30;99.90
17954;DHT22;9102;53.548;9.926;2023-04-24T03:17:38;11.30;99.90
17954;DHT22;9102;53.548;9.926;2023-04-24T03:20:06;11.30;99.90
17954;DHT22;9102;53.548;9.926;2023-04-24T03:22:35;11.30;99.90
17954;DHT22;9102;53.548;9.926;2023-04-24T03:25:03;11.20;99.90
17954;DHT22;9102;53.548;9.926;2023-04-24T03:27:30;11.20;99.90
17954;DHT22;9102;53.548;9.926;2023-04-24T03:29:57;11.20;99.90
17954;DHT22;9102;53.548;9.926;2023-04-24T03:32:24;11.20;99.90
17954;DHT22;9102;53.548;9.926;2023-04-24T03:34:51;11.20;99.90
17954;DHT22;9102;53.548;9.926;2023-04-24T03:37:17;11.20;99.90
17954;DHT22;9102;53.548;9.926;2023-04-24T03:39:46;11.10;99.90
17954;DHT22;9102;53.548;9.926;2023-04-24T03:42:12;11.00;99.90
17954;DHT22;9102;53.548;9.926;2023-04-24T03:44:39;11.00;99.90
17954;DHT22;9102;53.548;9.926;2023-04-24T03:47:06;11.00;99.90
17954;DHT22;9102;53.548;9.926;2023-04-24T03:49:33;11.00;99.90
17954;DHT22;9102;53.548;9.926;2023-04-24T03:52:00;11.00;99.90
17954;DHT22;9102;53.548;9.926;2023-04-24T03:54:26;10.90;99.90
17954;DHT22;9102;53.548;9.926;2023-04-24T03:56:55;10.90;99.90
17954;DHT22;9102;53.548;9.926;2023-04-24T03:59:21;11.00;99.90
17954;DHT22;9102;53.548;9.926;2023-04-24T04:01:48;10.90;99.90
17954;DHT22;9102;53.548;9.926;2023-04-24T04:04:15;11.00;99.90
17954;DHT22;9102;53.548;9.926;2023-04-24T04:06:43;11.00;99.90
17954;DHT22;9102;53.548;9.926;2023-04-24T04:09:10;11.00;99.90
17954;DHT22;9102;53.548;9.926;2023-04-24T04:11:37;11.10;99.90
17954;DHT22;9102;53.548;9.926;2023-04-24T04:14:05;11.00;99.90
17954;DHT22;9102;53.548;9.926;2023-04-24T04:16:32;11.00;99.90
17954;DHT22;9102;53.548;9.926;2023-04-24T04:18:59;11.00;99.90
17954;DHT22;9102;53.548;9.926;2023-04-24T04:21:26;11.00;99.90
17954;DHT22;9102;53.548;9.926;2023-04-24T04:23:53;11.00;99.90
17954;DHT22;9102;53.548;9.926;2023-04-24T04:26:20;11.00;99.90
17954;DHT22;9102;53.548;9.926;2023-04-24T04:28:51;10.90;99.90
17954;DHT22;9102;53.548;9.926;2023-04-24T04:31:19;10.90;99.90
17954;DHT22;9102;53.548;9.926;2023-04-24T04:33:46;10.90;99.90
17954;DHT22;9102;53.548;9.926;2023-04-24T04:36:14;10.90;99.90
17954;DHT22;9102;53.548;9.926;2023-04-24T04:38:42;10.90;99.90
17954;DHT22;9102;53.548;9.926;2023-04-24T04:41:10;10.90;99.90
17954;DHT22;9102;53.548;9.926;2023-04-24T04:43:37;10.90;99.90
17954;DHT22;9102;53.548;9.926;2023-04-24T04:46:06;11.00;99.90
17954;DHT22;9102;53.548;9.926;2023-04-24T04:48:35;11.10;99.90
17954;DHT22;9102;53.548;9.926;2023-04-24T04:51:02;11.20;99.90
17954;DHT22;9102;53.548;9.926;2023-04-24T04:53:29;11.30;99.90
17954;DHT22;9102;53.548;9.926;2023-04-24T04:55:56;11.40;99.90
17954;DHT22;9102;53.548;9.926;2023-04-24T04:58:23;11.50;99.90
17954;DHT22;9102;53.548;9.926;2023-04-24T05:00:49;11.50;99.90
17954;DHT22;9102;53.548;9.926;2023-04-24T05:03:17;11.40;99.90
17954;DHT22;9102;53.548;9.926;2023-04-24T05:05:45;11.30;99.90
17954;DHT22;9102;53.548;9.926;2023-04-24T05:08:12;11.30;99.90
17954;DHT22;9102;53.548;9.926;2023-04-24T05:10:39;11.30;99.90
17954;DHT22;9102;53.548;9.926;2023-04-24T05:13:06;11.30;99.90
17954;DHT22;9102;53.548;9.926;2023-04-24T05:15:33;11.30;99.90
17954;DHT22;9102;53.548;9.926;2023-04-24T05:17:59;11.30;99.90
17954;DHT22;9102;53.548;9.926;2023-04-24T05:20:26;11.30;99.90
17954;DHT22;9102;53.548;9.926;2023-04-24T05:22:54;11.40;99.90
17954;DHT22;9102;53.548;9.926;2023-04-24T05:25:21;11.40;99.90
17954;DHT22;9102;53.548;9.926;2023-04-24T05:27:48;11.50;99.90
17954;DHT22;9102;53.548;9.926;2023-04-24T05:30:15;11.60;99.90
17954;DHT22;9102;53.548;9.926;2023-04-24T05:32:42;11.70;99.90
17954;DHT22;9102;53.548;9.926;2023-04-24T05:35:10;11.70;99.90
17954;DHT22;9102;53.548;9.926;2023-04-24T05:37:36;11.60;99.90
17954;DHT22;9102;53.548;9.926;2023-04-24T05:40:06;11.70;99.90
17954;DHT22;9102;53.548;9.926;2023-04-24T05:42:33;11.70;99.90
17954;DHT22;9102;53.548;9.926;2023-04-24T05:45:00;11.70;99.90
17954;DHT22;9102;53.548;9.926;2023-04-24T05:47:27;11.80;99.90
17954;DHT22;9102;53.548;9.926;2023-04-24T05:49:54;11.80;99.90
17954;DHT22;9102;53.548;9.926;2023-04-24T05:52:21;11.80;99.90
17954;DHT22;9102;53.548;9.926;2023-04-24T05:54:48;11.80;99.90
17954;DHT22;9102;53.548;9.926;2023-04-24T05:57:16;11.80;99.90
17954;DHT22;9102;53.548;9.926;2023-04-24T05:59:42;11.90;99.90
17954;DHT22;9102;53.548;9.926;2023-04-24T06:02:09;11.80;99.90
17954;DHT22;9102;53.548;9.926;2023-04-24T06:04:36;11.90;99.90
17954;DHT22;9102;53.548;9.926;2023-04-24T06:07:03;11.90;99.90
17954;DHT22;9102;53.548;9.926;2023-04-24T06:09:30;12.00;99.90
17954;DHT22;9102;53.548;9.926;2023-04-24T06:11:56;12.00;99.90
17954;DHT22;9102;53.548;9.926;2023-04-24T06:14:25;12.00;99.90
17954;DHT22;9102;53.548;9.926;2023-04-24T06:16:52;12.10;99.90
17954;DHT22;9102;53.548;9.926;2023-04-24T06:19:19;12.20;99.90
17954;DHT22;9102;53.548;9.926;2023-04-24T06:21:45;12.20;99.90
17954;DHT22;9102;53.548;9.926;2023-04-24T06:24:14;12.30;99.90
17954;DHT22;9102;53.548;9.926;2023-04-24T06:26:42;12.30;99.90
17954;DHT22;9102;53.548;9.926;2023-04-24T06:29:09;12.30;99.90
17954;DHT22;9102;53.548;9.926;2023-04-24T06:31:37;12.40;99.90
17954;DHT22;9102;53.548;9.926;2023-04-24T06:34:04;12.40;99.90
17954;DHT22;9102;53.548;9.926;2023-04-24T06:36:31;12.50;99.90
17954;DHT22;9102;53.548;9.926;2023-04-24T06:39:00;12.50;99.90
17954;DHT22;9102;53.548;9.926;2023-04-24T06:41:27;12.60;99.90
17954;DHT22;9102;53.548;9.926;2023-04-24T06:43:54;12.70;99.90
17954;DHT22;9102;53.548;9.926;2023-04-24T06:46:21;12.70;99.90
17954;DHT22;9102;53.548;9.926;2023-04-24T06:48:53;12.70;99.90
17954;DHT22;9102;53.548;9.926;2023-04-24T06:51:22;12.70;99.90
17954;DHT22;9102;53.548;9.926;2023-04-24T06:53:49;12.80;99.90
17954;DHT22;9102;53.548;9.926;2023-04-24T06:56:16;12.70;99.90
17954;DHT22;9102;53.548;9.926;2023-04-24T06:58:43;12.90;99.90
17954;DHT22;9102;53.548;9.926;2023-04-24T07:01:10;12.90;99.90
17954;DHT22;9102;53.548;9.926;2023-04-24T07:03:37;12.90;99.90
17954;DHT22;9102;53.548;9.926;2023-04-24T07:06:06;13.00;99.90
17954;DHT22;9102;53.548;9.926;2023-04-24T07:08:33;13.00;99.90
17954;DHT22;9102;53.548;9.926;2023-04-24T07:11:00;13.20;99.90
17954;DHT22;9102;53.548;9.926;2023-04-24T07:13:27;13.20;99.90
17954;DHT22;9102;53.548;9.926;2023-04-24T07:15:54;13.20;99.90
17954;DHT22;9102;53.548;9.926;2023-04-24T07:18:21;13.40;99.90
17954;DHT22;9102;53.548;9.926;2023-04-24T07:20:48;13.40;99.90
17954;DHT22;9102;53.548;9.926;2023-04-24T07:23:18;13.70;99.90
17954;DHT22;9102;53.548;9.926;2023-04-24T07:25:45;13.80;99.90
17954;DHT22;9102;53.548;9.926;2023-04-24T07:28:12;13.70;99.90
17954;DHT22;9102;53.548;9.926;2023-04-24T07:30:39;13.70;99.90
17954;DHT22;9102;53.548;9.926;2023-04-24T07:33:06;13.60;99.90
17954;DHT22;9102;53.548;9.926;2023-04-24T07:35:33;13.50;99.90
17954;DHT22;9102;53.548;9.926;2023-04-24T07:38:00;13.50;99.90
17954;DHT22;9102;53.548;9.926;2023-04-24T07:40:29;13.60;99.90
17954;DHT22;9102;53.548;9.926;2023-04-24T07:42:56;13.70;99.90
17954;DHT22;9102;53.548;9.926;2023-04-24T07:45:22;13.80;99.90
17954;DHT22;9102;53.548;9.926;2023-04-24T07:47:51;13.90;99.90
17954;DHT22;9102;53.548;9.926;2023-04-24T07:50:18;14.00;99.90
17954;DHT22;9102;53.548;9.926;2023-04-24T07:52:45;14.10;99.90
17954;DHT22;9102;53.548;9.926;2023-04-24T07:55:12;14.10;99.90
17954;DHT22;9102;53.548;9.926;2023-04-24T07:57:40;14.30;99.90
17954;DHT22;9102;53.548;9.926;2023-04-24T08:00:08;14.20;99.90
17954;DHT22;9102;53.548;9.926;2023-04-24T08:02:35;14.20;99.90
17954;DHT22;9102;53.548;9.926;2023-04-24T08:05:02;14.20;99.90
17954;DHT22;9102;53.548;9.926;2023-04-24T08:07:29;14.20;99.90
17954;DHT22;9102;53.548;9.926;2023-04-24T08:09:56;14.00;99.90
17954;DHT22;9102;53.548;9.926;2023-04-24T08:12:24;14.00;99.90
17954;DHT22;9102;53.548;9.926;2023-04-24T08:14:53;14.00;99.90
17954;DHT22;9102;53.548;9.926;2023-04-24T08:17:19;13.90;99.90
17954;DHT22;9102;53.548;9.926;2023-04-24T08:19:46;13.80;99.90
17954;DHT22;9102;53.548;9.926;2023-04-24T08:22:14;13.90;99.90
17954;DHT22;9102;53.548;9.926;2023-04-24T08:24:41;14.00;99.90
17954;DHT22;9102;53.548;9.926;2023-04-24T08:27:08;14.00;99.90
17954;DHT22;9102;53.548;9.926;2023-04-24T08:29:35;14.00;99.90
17954;DHT22;9102;53.548;9.926;2023-04-24T08:32:04;14.10;99.90
17954;DHT22;9102;53.548;9.926;2023-04-24T08:34:30;14.10;99.90
17954;DHT22;9102;53.548;9.926;2023-04-24T08:36:57;14.10;99.90
17954;DHT22;9102;53.548;9.926;2023-04-24T08:39:24;14.10;99.90
17954;DHT22;9102;53.548;9.926;2023-04-24T08:41:52;14.00;99.90
17954;DHT22;9102;53.548;9.926;2023-04-24T08:44:19;14.10;99.90
17954;DHT22;9102;53.548;9.926;2023-04-24T08:46:47;13.90;99.90
17954;DHT22;9102;53.548;9.926;2023-04-24T08:49:18;13.90;99.90
17954;DHT22;9102;53.548;9.926;2023-04-24T08:51:45;13.90;99.90
17954;DHT22;9102;53.548;9.926;2023-04-24T08:54:13;13.90;99.90
17954;DHT22;9102;53.548;9.926;2023-04-24T08:56:43;13.80;99.90
17954;DHT22;9102;53.548;9.926;2023-04-24T08:59:11;13.90;99.90
17954;DHT22;9102;53.548;9.926;2023-04-24T09:01:38;14.00;99.90
17954;DHT22;9102;53.548;9.926;2023-04-24T09:04:08;14.20;99.90
17954;DHT22;9102;53.548;9.926;2023-04-24T09:06:37;14.30;99.90
17954;DHT22;9102;53.548;9.926;2023-04-24T09:09:05;14.50;99.90
17954;DHT22;9102;53.548;9.926;2023-04-24T09:11:32;14.60;99.90
17954;DHT22;9102;53.548;9.926;2023-04-24T09:13:59;14.80;99.90
17954;DHT22;9102;53.548;9.926;2023-04-24T09:16:27;15.10;99.90
17954;DHT22;9102;53.548;9.926;2023-04-24T09:18:55;14.80;99.90
17954;DHT22;9102;53.548;9.926;2023-04-24T09:21:22;14.40;99.90
17954;DHT22;9102;53.548;9.926;2023-04-24T09:23:59;14.60;99.90
17954;DHT22;9102;53.548;9.926;2023-04-24T09:26:29;14.60;99.90
17954;DHT22;9102;53.548;9.926;2023-04-24T09:28:58;14.70;99.90
17954;DHT22;9102;53.548;9.926;2023-04-24T09:31:27;14.70;99.90
17954;DHT22;9102;53.548;9.926;2023-04-24T09:33:56;14.70;99.90
17954;DHT22;9102;53.548;9.926;2023-04-24T09:36:27;14.60;99.90
17954;DHT22;9102;53.548;9.926;2023-04-24T09:38:59;14.60;99.90
17954;DHT22;9102;53.548;9.926;2023-04-24T09:41:27;14.40;99.90
17954;DHT22;9102;53.548;9.926;2023-04-24T09:43:56;14.20;99.90
17954;DHT22;9102;53.548;9.926;2023-04-24T09:46:29;13.90;99.90
17954;DHT22;9102;53.548;9.926;2023-04-24T09:48:57;13.90;99.90
17954;DHT22;9102;53.548;9.926;2023-04-24T09:51:34;13.70;99.90
17954;DHT22;9102;53.548;9.926;2023-04-24T09:54:04;13.70;99.90
17954;DHT22;9102;53.548;9.926;2023-04-24T09:56:32;13.70;99.90
17954;DHT22;9102;53.548;9.926;2023-04-24T09:59:04;13.60;99.90
17954;DHT22;9102;53.548;9.926;2023-04-24T10:01:32;13.70;99.90
17954;DHT22;9102;53.548;9.926;2023-04-24T10:03:59;13.70;99.90
17954;DHT22;9102;53.548;9.926;2023-04-24T10:06:32;13.60;99.90
17954;DHT22;9102;53.548;9.926;2023-04-24T10:08:59;13.70;99.90
17954;DHT22;9102;53.548;9.926;2023-04-24T10:11:28;13.60;99.90
17954;DHT22;9102;53.548;9.926;2023-04-24T10:13:55;13.50;99.90
17954;DHT22;9102;53.548;9.926;2023-04-24T10:16:23;13.40;99.90
17954;DHT22;9102;53.548;9.926;2023-04-24T10:18:50;13.40;99.90
17954;DHT22;9102;53.548;9.926;2023-04-24T10:21:17;13.60;99.90
17954;DHT22;9102;53.548;9.926;2023-04-24T10:23:45;13.60;99.90
17954;DHT22;9102;53.548;9.926;2023-04-24T10:26:13;13.80;99.90
17954;DHT22;9102;53.548;9.926;2023-04-24T10:28:45;13.70;99.90
17954;DHT22;9102;53.548;9.926;2023-04-24T10:31:12;13.70;99.90
17954;DHT22;9102;53.548;9.926;2023-04-24T10:33:40;13.70;99.90
17954;DHT22;9102;53.548;9.926;2023-04-24T10:36:08;13.70;99.90
17954;DHT22;9102;53.548;9.926;2023-04-24T10:38:37;13.70;99.90
17954;DHT22;9102;53.548;9.926;2023-04-24T10:41:09;13.90;99.90
17954;DHT22;9102;53.548;9.926;2023-04-24T10:43:41;14.00;99.90
17954;DHT22;9102;53.548;9.926;2023-04-24T10:46:10;14.10;99.90
17954;DHT22;9102;53.548;9.926;2023-04-24T10:48:42;14.20;99.90
17954;DHT22;9102;53.548;9.926;2023-04-24T10:51:12;14.10;99.90
17954;DHT22;9102;53.548;9.926;2023-04-24T10:53:39;14.10;99.90
17954;DHT22;9102;53.548;9.926;2023-04-24T10:56:07;14.20;99.90
17954;DHT22;9102;53.548;9.926;2023-04-24T10:58:40;14.20;99.90
17954;DHT22;9102;53.548;9.926;2023-04-24T11:01:23;14.20;99.90
17954;DHT22;9102;53.548;9.926;2023-04-24T11:03:53;14.30;99.90
17954;DHT22;9102;53.548;9.926;2023-04-24T11:06:28;14.30;99.90
17954;DHT22;9102;53.548;9.926;2023-04-24T11:09:03;14.20;99.90
17954;DHT22;9102;53.548;9.926;2023-04-24T11:11:30;14.40;99.90
17954;DHT22;9102;53.548;9.926;2023-04-24T11:14:07;14.50;99.90
17954;DHT22;9102;53.548;9.926;2023-04-24T11:16:40;14.60;99.90
17954;DHT22;9102;53.548;9.926;2023-04-24T11:19:17;14.60;99.90
17954;DHT22;9102;53.548;9.926;2023-04-24T11:21:47;14.60;99.90
17954;DHT22;9102;53.548;9.926;2023-04-24T11:24:32;14.40;99.90
17954;DHT22;9102;53.548;9.926;2023-04-24T11:27:11;14.50;99.90
17954;DHT22;9102;53.548;9.926;2023-04-24T11:29:41;14.50;99.90
17954;DHT22;9102;53.548;9.926;2023-04-24T11:32:17;14.70;99.90
17954;DHT22;9102;53.548;9.926;2023-04-24T11:34:46;14.60;99.90
17954;DHT22;9102;53.548;9.926;2023-04-24T11:37:13;14.60;99.90
17954;DHT22;9102;53.548;9.926;2023-04-24T11:39:40;14.50;99.90
17954;DHT22;9102;53.548;9.926;2023-04-24T11:42:07;14.50;99.90
17954;DHT22;9102;53.548;9.926;2023-04-24T11:44:35;14.60;99.90
17954;DHT22;9102;53.548;9.926;2023-04-24T11:47:03;14.60;99.90
17954;DHT22;9102;53.548;9.926;2023-04-24T11:49:31;14.60;99.90
17954;DHT22;9102;53.548;9.926;2023-04-24T11:51:59;14.50;99.90
17954;DHT22;9102;53.548;9.926;2023-04-24T11:54:26;14.30;99.90
17954;DHT22;9102;53.548;9.926;2023-04-24T11:56:53;14.10;99.90
17954;DHT22;9102;53.548;9.926;2023-04-24T11:59:19;14.10;99.90
17954;DHT22;9102;53.548;9.926;2023-04-24T12:01:47;14.40;99.90
17954;DHT22;9102;53.548;9.926;2023-04-24T12:04:16;14.60;99.90
17954;DHT22;9102;53.548;9.926;2023-04-24T12:09:44;14.70;99.90
17954;DHT22;9102;53.548;9.926;2023-04-24T12:12:12;14.70;99.90
17954;DHT22;9102;53.548;9.926;2023-04-24T12:14:44;14.80;99.90
17954;DHT22;9102;53.548;9.926;2023-04-24T12:17:11;14.70;99.90
17954;DHT22;9102;53.548;9.926;2023-04-24T12:19:44;14.50;99.90
17954;DHT22;9102;53.548;9.926;2023-04-24T12:22:11;14.30;99.90
17954;DHT22;9102;53.548;9.926;2023-04-24T12:24:57;14.30;99.90
17954;DHT22;9102;53.548;9.926;2023-04-24T12:27:26;14.10;99.90
17954;DHT22;9102;53.548;9.926;2023-04-24T12:29:55;14.10;99.90
17954;DHT22;9102;53.548;9.926;2023-04-24T12:32:22;13.90;99.90
17954;DHT22;9102;53.548;9.926;2023-04-24T12:34:50;13.90;99.90
17954;DHT22;9102;53.548;9.926;2023-04-24T12:37:17;14.00;99.90
17954;DHT22;9102;53.548;9.926;2023-04-24T12:39:59;14.00;99.90
17954;DHT22;9102;53.548;9.926;2023-04-24T12:42:27;13.90;99.90
17954;DHT22;9102;53.548;9.926;2023-04-24T12:44:56;13.80;99.90
17954;DHT22;9102;53.548;9.926;2023-04-24T12:47:25;13.80;99.90
17954;DHT22;9102;53.548;9.926;2023-04-24T12:49:52;13.80;99.90
17954;DHT22;9102;53.548;9.926;2023-04-24T12:52:20;13.70;99.90
17954;DHT22;9102;53.548;9.926;2023-04-24T12:54:47;13.60;99.90
17954;DHT22;9102;53.548;9.926;2023-04-24T12:57:16;13.50;99.90
17954;DHT22;9102;53.548;9.926;2023-04-24T12:59:43;13.40;99.90
17954;DHT22;9102;53.548;9.926;2023-04-24T13:02:10;13.30;99.90
17954;DHT22;9102;53.548;9.926;2023-04-24T13:04:37;13.30;99.90
17954;DHT22;9102;53.548;9.926;2023-04-24T13:07:05;13.30;99.90
17954;DHT22;9102;53.548;9.926;2023-04-24T13:09:33;13.20;99.90
17954;DHT22;9102;53.548;9.926;2023-04-24T13:12:00;13.20;99.90
17954;DHT22;9102;53.548;9.926;2023-04-24T13:14:29;13.10;99.90
17954;DHT22;9102;53.548;9.926;2023-04-24T13:16:56;13.20;99.90
17954;DHT22;9102;53.548;9.926;2023-04-24T13:19:24;13.10;99.90
17954;DHT22;9102;53.548;9.926;2023-04-24T13:21:51;13.20;99.90
17954;DHT22;9102;53.548;9.926;2023-04-24T13:24:18;13.20;99.90
17954;DHT22;9102;53.548;9.926;2023-04-24T13:26:45;13.20;99.90
17954;DHT22;9102;53.548;9.926;2023-04-24T13:29:12;13.20;99.90
17954;DHT22;9102;53.548;9.926;2023-04-24T13:31:40;13.10;99.90
17954;DHT22;9102;53.548;9.926;2023-04-24T13:34:07;13.10;99.90
17954;DHT22;9102;53.548;9.926;2023-04-24T13:36:34;13.00;99.90
17954;DHT22;9102;53.548;9.926;2023-04-24T13:39:01;13.00;99.90
17954;DHT22;9102;53.548;9.926;2023-04-24T13:41:29;12.90;99.90
17954;DHT22;9102;53.548;9.926;2023-04-24T13:43:59;12.90;99.90
17954;DHT22;9102;53.548;9.926;2023-04-24T13:46:26;12.90;99.90
17954;DHT22;9102;53.548;9.926;2023-04-24T13:49:04;12.90;99.90
17954;DHT22;9102;53.548;9.926;2023-04-24T13:51:32;12.90;99.90
17954;DHT22;9102;53.548;9.926;2023-04-24T13:53:59;13.10;99.90
17954;DHT22;9102;53.548;9.926;2023-04-24T13:56:29;13.20;99.90
17954;DHT22;9102;53.548;9.926;2023-04-24T13:58:56;13.20;99.90
17954;DHT22;9102;53.548;9.926;2023-04-24T14:01:25;13.30;99.90
17954;DHT22;9102;53.548;9.926;2023-04-24T14:03:53;13.30;99.90
17954;DHT22;9102;53.548;9.926;2023-04-24T14:06:32;13.30;99.90
17954;DHT22;9102;53.548;9.926;2023-04-24T14:09:01;13.10;99.90
17954;DHT22;9102;53.548;9.926;2023-04-24T14:11:34;13.20;99.90
17954;DHT22;9102;53.548;9.926;2023-04-24T14:14:11;13.30;99.90
17954;DHT22;9102;53.548;9.926;2023-04-24T14:16:40;13.20;99.90
17954;DHT22;9102;53.548;9.926;2023-04-24T14:19:10;13.10;99.90
17954;DHT22;9102;53.548;9.926;2023-04-24T14:21:41;13.10;99.90
17954;DHT22;9102;53.548;9.926;2023-04-24T14:24:08;12.90;99.90
17954;DHT22;9102;53.548;9.926;2023-04-24T14:26:41;12.80;99.90
17954;DHT22;9102;53.548;9.926;2023-04-24T14:29:10;12.70;99.90
17954;DHT22;9102;53.548;9.926;2023-04-24T14:31:42;12.40;99.90
17954;DHT22;9102;53.548;9.926;2023-04-24T14:34:09;12.40;99.90
17954;DHT22;9102;53.548;9.926;2023-04-24T14:36:40;12.20;99.90
17954;DHT22;9102;53.548;9.926;2023-04-24T14:39:13;11.90;99.90
17954;DHT22;9102;53.548;9.926;2023-04-24T14:41:39;11.70;99.90
17954;DHT22;9102;53.548;9.926;2023-04-24T14:44:06;11.60;99.90
17954;DHT22;9102;53.548;9.926;2023-04-24T14:46:33;11.30;99.90
17954;DHT22;9102;53.548;9.926;2023-04-24T14:49:06;11.10;99.90
17954;DHT22;9102;53.548;9.926;2023-04-24T14:51:37;11.10;99.90
17954;DHT22;9102;53.548;9.926;2023-04-24T14:54:08;11.00;99.90
17954;DHT22;9102;53.548;9.926;2023-04-24T14:56:35;11.00;99.90
17954;DHT22;9102;53.548;9.926;2023-04-24T14:59:06;11.00;99.90
17954;DHT22;9102;53.548;9.926;2023-04-24T15:01:36;10.90;99.90
17954;DHT22;9102;53.548;9.926;2023-04-24T15:04:03;10.80;99.90
17954;DHT22;9102;53.548;9.926;2023-04-24T15:06:33;10.80;99.90
17954;DHT22;9102;53.548;9.926;2023-04-24T15:09:00;10.70;99.90
17954;DHT22;9102;53.548;9.926;2023-04-24T15:11:38;10.80;99.90
17954;DHT22;9102;53.548;9.926;2023-04-24T15:14:08;10.70;99.90
17954;DHT22;9102;53.548;9.926;2023-04-24T15:16:35;10.60;99.90
17954;DHT22;9102;53.548;9.926;2023-04-24T15:19:22;10.50;99.90
17954;DHT22;9102;53.548;9.926;2023-04-24T15:21:59;10.30;99.90
17954;DHT22;9102;53.548;9.926;2023-04-24T15:24:25;10.20;99.90
17954;DHT22;9102;53.548;9.926;2023-04-24T15:26:54;10.10;99.90
17954;DHT22;9102;53.548;9.926;2023-04-24T15:29:22;10.20;99.90
17954;DHT22;9102;53.548;9.926;2023-04-24T15:31:53;10.40;99.90
17954;DHT22;9102;53.548;9.926;2023-04-24T15:34:23;10.30;99.90
17954;DHT22;9102;53.548;9.926;2023-04-24T15:36:52;10.20;99.90
17954;DHT22;9102;53.548;9.926;2023-04-24T15:39:25;10.20;99.90
17954;DHT22;9102;53.548;9.926;2023-04-24T15:41:55;10.10;99.90
17954;DHT22;9102;53.548;9.926;2023-04-24T15:44:22;10.00;99.90
17954;DHT22;9102;53.548;9.926;2023-04-24T15:46:53;9.80;99.90
17954;DHT22;9102;53.548;9.926;2023-04-24T15:49:20;9.60;99.90
17954;DHT22;9102;53.548;9.926;2023-04-24T15:52:12;9.50;99.90
17954;DHT22;9102;53.548;9.926;2023-04-24T15:54:42;9.40;99.90
17954;DHT22;9102;53.548;9.926;2023-04-24T15:57:10;9.30;99.90